Time;durP1;ratioP1;P1;durP2;ratioP2;P2;SDS_P1;SDS_P2;PMS_P1;PMS_P2;Temp;Humidity;BMP_temperature;BMP_pressure;BME280_temperature;BME280_humidity;BME280_pressure;Samples;Min_cycle;Max_cycle;Signal;HPM_P1;HPM_P2
2023/08/24 00:02:02;;;;;;;5.60;2.78;;;20.50;99.90;;;;;;5017967;28;20030;-67
2023/08/24 00:04:28;;;;;;;9.93;2.97;;;20.40;99.90;;;;;;5017704;28;20036;-67
2023/08/24 00:06:54;;;;;;;7.00;3.15;;;20.40;99.90;;;;;;5016907;28;20021;-67
2023/08/24 00:09:20;;;;;;;8.77;3.28;;;20.30;99.90;;;;;;5017576;28;20076;-67
2023/08/24 00:11:45;;;;;;;5.55;2.55;;;20.30;99.90;;;;;;5017865;28;20072;-67
2023/08/24 00:14:11;;;;;;;11.95;3.15;;;20.30;99.90;;;;;;5016973;28;20022;-67
2023/08/24 00:16:37;;;;;;;5.45;2.80;;;20.40;99.90;;;;;;5016787;28;20053;-67
2023/08/24 00:19:03;;;;;;;5.60;2.78;;;20.20;99.90;;;;;;5016734;28;20121;-67
2023/08/24 00:21:28;;;;;;;6.50;3.05;;;20.10;99.90;;;;;;5016969;28;20061;-67
2023/08/24 00:23:54;;;;;;;6.05;2.85;;;20.10;99.90;;;;;;5017525;28;20026;-67
2023/08/24 00:26:20;;;;;;;5.20;2.55;;;19.90;99.90;;;;;;5016703;28;20021;-67
2023/08/24 00:28:46;;;;;;;4.65;2.55;;;19.90;99.90;;;;;;5016864;28;20037;-67
2023/08/24 00:31:11;;;;;;;7.38;2.80;;;19.90;99.90;;;;;;5017757;28;20033;-67
2023/08/24 00:33:37;;;;;;;4.63;2.70;;;20.00;99.90;;;;;;5016396;28;20017;-67
2023/08/24 00:36:05;;;;;;;5.97;3.00;;;20.10;99.90;;;;;;5016483;28;20021;-67
2023/08/24 00:38:31;;;;;;;6.05;2.50;;;20.10;99.90;;;;;;5016836;28;20030;-67
2023/08/24 00:40:58;;;;;;;8.70;3.15;;;20.10;99.90;;;;;;5017326;28;20034;-67
2023/08/24 00:43:25;;;;;;;5.00;2.58;;;20.00;99.90;;;;;;5017278;28;20022;-67
2023/08/24 00:45:52;;;;;;;3.20;2.70;;;20.10;99.90;;;;;;5016377;28;20034;-67
2023/08/24 00:48:19;;;;;;;6.15;2.50;;;20.10;99.90;;;;;;5016679;28;20026;-67
2023/08/24 00:50:44;;;;;;;7.70;3.17;;;20.10;99.90;;;;;;5016386;28;20022;-67
2023/08/24 00:53:10;;;;;;;4.50;2.80;;;20.10;99.90;;;;;;5017355;28;20057;-67
2023/08/24 00:55:36;;;;;;;6.15;2.80;;;20.20;99.90;;;;;;5017064;28;20022;-67
2023/08/24 00:58:03;;;;;;;8.48;2.80;;;20.30;99.90;;;;;;5016345;28;20025;-67
2023/08/24 01:00:28;;;;;;;4.20;2.92;;;20.40;99.90;;;;;;5017142;28;20053;-67
2023/08/24 01:02:55;;;;;;;4.50;3.35;;;20.30;99.90;;;;;;5017164;28;20050;-67
2023/08/24 01:05:20;;;;;;;8.02;3.33;;;20.30;99.90;;;;;;5016947;28;20026;-67
2023/08/24 01:07:47;;;;;;;5.22;2.67;;;20.30;99.90;;;;;;5016218;28;20032;-67
2023/08/24 01:10:12;;;;;;;5.00;2.88;;;20.50;99.90;;;;;;5016554;28;20056;-67
2023/08/24 01:12:55;;;;;;;7.35;3.20;;;20.50;99.90;;;;;;5017271;28;20026;-67
2023/08/24 01:15:37;;;;;;;5.82;2.92;;;20.50;99.90;;;;;;5016561;28;20036;-67
2023/08/24 01:18:08;;;;;;;5.22;2.75;;;20.50;99.90;;;;;;5017448;28;20116;-67
2023/08/24 01:20:35;;;;;;;;;;;20.40;99.90;;;;;;5016527;28;20026;-67
2023/08/24 01:23:18;;;;;;;9.45;3.15;;;20.30;99.90;;;;;;5016418;28;19905;-67
2023/08/24 01:26:11;;;;;;;4.88;3.30;;;20.30;99.90;;;;;;5016909;28;20030;-67
2023/08/24 01:28:38;;;;;;;8.05;3.58;;;20.30;99.90;;;;;;5016733;28;20042;-67
2023/08/24 01:31:05;;;;;;;6.28;2.97;;;20.30;99.90;;;;;;5016219;28;20045;-67
2023/08/24 01:33:31;;;;;;;4.55;3.30;;;20.20;99.90;;;;;;5016021;28;20076;-67
2023/08/24 01:35:56;;;;;;;5.35;3.10;;;20.30;99.90;;;;;;5017108;28;20018;-67
2023/08/24 01:38:22;;;;;;;7.10;3.20;;;20.20;99.90;;;;;;5015865;28;20030;-67
2023/08/24 01:40:53;;;;;;;6.38;3.08;;;20.20;99.90;;;;;;5016113;28;20033;-67
2023/08/24 01:43:26;;;;;;;8.27;3.13;;;20.20;99.90;;;;;;5016419;28;20053;-67
2023/08/24 01:45:55;;;;;;;7.50;3.47;;;20.20;99.90;;;;;;5016557;28;20049;-67
2023/08/24 01:48:21;;;;;;;5.47;3.00;;;20.10;99.90;;;;;;5016632;28;20065;-67
2023/08/24 01:50:47;;;;;;;10.15;3.35;;;20.00;99.90;;;;;;5015902;28;20021;-67
2023/08/24 01:53:13;;;;;;;11.40;3.35;;;20.00;99.90;;;;;;5015878;28;20094;-67
2023/08/24 01:55:39;;;;;;;6.10;3.28;;;20.00;99.90;;;;;;5015761;28;20034;-67
2023/08/24 01:58:04;;;;;;;7.97;3.80;;;20.00;99.90;;;;;;5016202;28;20030;-67
2023/08/24 02:00:30;;;;;;;7.30;3.47;;;19.90;99.90;;;;;;5018800;28;20072;-67
2023/08/24 02:02:56;;;;;;;5.13;3.35;;;19.90;99.90;;;;;;5019862;28;20025;-67
2023/08/24 02:05:21;;;;;;;7.65;3.90;;;19.90;99.90;;;;;;5020265;28;20018;-67
2023/08/24 02:07:47;;;;;;;5.68;3.42;;;19.80;99.90;;;;;;5019142;28;20032;-67
2023/08/24 02:10:12;;;;;;;10.00;3.80;;;19.80;99.90;;;;;;5019131;28;20022;-67
2023/08/24 02:12:38;;;;;;;12.43;4.18;;;19.80;99.90;;;;;;5019351;28;20014;-67
2023/08/24 02:15:04;;;;;;;9.05;3.67;;;19.80;99.90;;;;;;5018929;28;20064;-67
2023/08/24 02:17:30;;;;;;;7.70;4.07;;;19.80;99.90;;;;;;5019010;28;20026;-67
2023/08/24 02:19:55;;;;;;;9.65;3.55;;;19.80;99.90;;;;;;5018991;28;20021;-67
2023/08/24 02:22:21;;;;;;;7.03;3.60;;;19.80;99.90;;;;;;5018856;28;20046;-67
2023/08/24 02:24:46;;;;;;;7.03;3.55;;;19.70;99.90;;;;;;5019402;28;20029;-67
2023/08/24 02:27:12;;;;;;;5.07;3.28;;;19.60;99.90;;;;;;5019143;28;20076;-67
2023/08/24 02:29:38;;;;;;;5.03;3.53;;;19.60;99.90;;;;;;5018555;28;20076;-67
2023/08/24 02:32:04;;;;;;;5.72;3.05;;;19.60;99.90;;;;;;5018682;28;20026;-67
2023/08/24 02:34:30;;;;;;;9.35;4.00;;;19.60;99.90;;;;;;5019501;28;20022;-67
2023/08/24 02:36:57;;;;;;;10.27;3.63;;;19.50;99.90;;;;;;5019992;28;20072;-67
2023/08/24 02:39:22;;;;;;;5.15;3.05;;;19.50;99.90;;;;;;5019726;28;20128;-67
2023/08/24 02:41:49;;;;;;;6.70;3.45;;;19.60;99.90;;;;;;5019008;28;20049;-67
2023/08/24 02:44:14;;;;;;;7.72;3.30;;;19.50;99.90;;;;;;5018586;28;20041;-67
2023/08/24 02:46:40;;;;;;;8.70;3.78;;;19.50;99.90;;;;;;5042606;22;20068;-71
2023/08/24 02:49:05;;;;;;;9.23;3.88;;;19.40;99.90;;;;;;5018271;28;20034;-70
2023/08/24 02:51:32;;;;;;;4.70;3.08;;;19.40;99.90;;;;;;5018390;28;20029;-70
2023/08/24 02:53:57;;;;;;;4.38;3.45;;;19.30;99.90;;;;;;5018310;28;20022;-71
2023/08/24 02:56:23;;;;;;;7.38;3.50;;;19.40;99.90;;;;;;5018453;28;20036;-70
2023/08/24 02:58:48;;;;;;;5.78;3.85;;;19.30;99.90;;;;;;5018309;28;20093;-70
2023/08/24 03:01:14;;;;;;;6.80;3.90;;;19.30;99.90;;;;;;5018271;28;20033;-71
2023/08/24 03:03:39;;;;;;;7.20;4.60;;;19.30;99.90;;;;;;5019187;28;20030;-70
2023/08/24 03:06:07;;;;;;;6.00;3.60;;;19.30;99.90;;;;;;5018027;28;20025;-70
2023/08/24 03:08:33;;;;;;;10.50;3.70;;;19.30;99.90;;;;;;5018459;28;20048;-70
2023/08/24 03:11:00;;;;;;;14.02;3.72;;;19.30;99.90;;;;;;5017381;28;20032;-70
2023/08/24 03:13:27;;;;;;;7.63;3.42;;;19.30;99.90;;;;;;5017897;28;20026;-70
2023/08/24 03:15:52;;;;;;;7.13;3.67;;;19.30;99.90;;;;;;5017799;28;20060;-70
2023/08/24 03:18:19;;;;;;;6.22;3.58;;;19.30;99.90;;;;;;5018067;28;20025;-70
2023/08/24 03:20:46;;;;;;;6.75;3.38;;;19.20;99.90;;;;;;5017734;28;20065;-70
2023/08/24 03:23:12;;;;;;;5.50;3.33;;;18.90;99.90;;;;;;5020865;28;20065;-70
2023/08/24 03:25:39;;;;;;;8.75;3.35;;;18.80;99.90;;;;;;5020246;28;20053;-70
2023/08/24 03:28:05;;;;;;;13.68;3.53;;;18.70;99.90;;;;;;5017651;28;20038;-70
2023/08/24 03:30:31;;;;;;;7.28;3.67;;;18.80;99.90;;;;;;5018804;28;20101;-70
2023/08/24 03:32:58;;;;;;;10.95;4.47;;;18.90;99.90;;;;;;5022632;28;20025;-65
2023/08/24 03:35:23;;;;;;;6.13;3.80;;;18.90;99.90;;;;;;5017405;28;20032;-65
2023/08/24 03:37:49;;;;;;;10.32;4.13;;;19.00;99.90;;;;;;5017411;28;20022;-65
2023/08/24 03:40:14;;;;;;;10.55;4.22;;;19.10;99.90;;;;;;5017738;28;20017;-65
2023/08/24 03:42:40;;;;;;;10.82;3.50;;;19.10;99.90;;;;;;5017436;28;20025;-65
2023/08/24 03:45:06;;;;;;;6.88;3.00;;;19.10;99.90;;;;;;5017717;28;20030;-65
2023/08/24 03:47:31;;;;;;;9.98;3.10;;;18.90;99.90;;;;;;5018051;28;20033;-65
2023/08/24 03:49:57;;;;;;;6.57;3.20;;;18.80;99.90;;;;;;5018253;28;20021;-65
2023/08/24 03:52:23;;;;;;;5.53;3.42;;;18.70;99.90;;;;;;5018086;28;20029;-65
2023/08/24 03:54:48;;;;;;;8.65;3.50;;;18.80;99.90;;;;;;5017908;28;20022;-65
2023/08/24 03:57:15;;;;;;;4.55;3.00;;;18.90;99.90;;;;;;5017604;28;20022;-65
2023/08/24 03:59:41;;;;;;;7.57;3.97;;;18.90;99.90;;;;;;5018288;28;20022;-65
2023/08/24 04:02:06;;;;;;;11.23;3.85;;;19.10;99.90;;;;;;5017933;28;20022;-65
2023/08/24 04:04:32;;;;;;;12.32;4.10;;;19.00;99.90;;;;;;5016989;28;20030;-65
2023/08/24 04:06:58;;;;;;;8.73;3.80;;;19.00;99.90;;;;;;5017798;28;20018;-65
2023/08/24 04:09:23;;;;;;;8.05;4.07;;;19.10;99.90;;;;;;5017816;28;20026;-65
2023/08/24 04:11:49;;;;;;;6.00;3.92;;;19.00;99.90;;;;;;5016880;28;20049;-65
2023/08/24 04:14:14;;;;;;;8.90;3.70;;;19.10;99.90;;;;;;5017348;28;20068;-65
2023/08/24 04:16:41;;;;;;;7.70;4.10;;;19.00;99.90;;;;;;5016874;28;20032;-65
2023/08/24 04:19:07;;;;;;;10.13;3.95;;;19.00;99.90;;;;;;5017819;28;20034;-65
2023/08/24 04:21:33;;;;;;;9.68;4.75;;;19.00;99.90;;;;;;5017017;28;20032;-65
2023/08/24 04:23:59;;;;;;;6.32;4.00;;;19.00;99.90;;;;;;5017653;28;20026;-65
2023/08/24 04:26:24;;;;;;;8.13;3.63;;;19.00;99.90;;;;;;5017694;28;20053;-65
2023/08/24 04:28:50;;;;;;;7.35;3.70;;;19.10;99.90;;;;;;5016684;28;20030;-65
2023/08/24 04:31:15;;;;;;;5.63;4.07;;;19.20;99.90;;;;;;5016942;28;20022;-65
2023/08/24 04:33:41;;;;;;;6.03;3.88;;;19.20;99.90;;;;;;5016563;28;20074;-65
2023/08/24 04:36:07;;;;;;;7.32;3.80;;;19.20;99.90;;;;;;5016446;28;20028;-65
2023/08/24 04:38:32;;;;;;;6.32;3.90;;;19.10;99.90;;;;;;5017472;28;20115;-65
2023/08/24 04:40:58;;;;;;;10.65;3.80;;;19.20;99.90;;;;;;5017348;28;20026;-65
2023/08/24 04:43:24;;;;;;;4.75;3.63;;;19.20;99.90;;;;;;5016808;28;20029;-65
2023/08/24 04:45:54;;;;;;;9.23;4.10;;;19.20;99.90;;;;;;5016501;28;20084;-65
2023/08/24 04:48:20;;;;;;;6.85;3.47;;;19.20;99.90;;;;;;5017279;28;20033;-66
2023/08/24 04:50:46;;;;;;;8.45;3.50;;;19.20;99.90;;;;;;5016840;28;20032;-65
2023/08/24 04:53:14;;;;;;;6.75;3.97;;;19.30;99.90;;;;;;5016726;28;20025;-65
2023/08/24 04:55:40;;;;;;;8.85;3.88;;;19.20;99.90;;;;;;5016509;28;20026;-65
2023/08/24 04:58:07;;;;;;;5.85;3.60;;;19.20;99.90;;;;;;5017119;28;20026;-65
2023/08/24 05:00:33;;;;;;;5.80;3.80;;;19.30;99.90;;;;;;5016677;28;20026;-65
2023/08/24 05:02:58;;;;;;;8.65;4.10;;;19.00;99.90;;;;;;5016348;28;20029;-65
2023/08/24 05:05:24;;;;;;;6.63;3.65;;;18.90;99.90;;;;;;5016284;28;20025;-65
2023/08/24 05:07:50;;;;;;;5.55;4.25;;;18.90;99.90;;;;;;5016703;28;20037;-65
2023/08/24 05:10:15;;;;;;;5.25;3.70;;;18.90;99.90;;;;;;5016905;28;20022;-65
2023/08/24 05:12:41;;;;;;;7.75;4.63;;;19.00;99.90;;;;;;5016466;28;20048;-65
2023/08/24 05:15:07;;;;;;;6.82;3.83;;;19.30;99.90;;;;;;5016854;28;20028;-65
2023/08/24 05:17:32;;;;;;;5.80;4.15;;;19.40;99.90;;;;;;5016145;28;20056;-65
2023/08/24 05:19:58;;;;;;;8.60;4.18;;;19.50;99.90;;;;;;5016476;28;20026;-65
2023/08/24 05:22:24;;;;;;;9.20;4.03;;;19.60;99.90;;;;;;5016336;28;20072;-65
2023/08/24 05:24:49;;;;;;;7.90;4.25;;;19.60;99.90;;;;;;5016692;28;20022;-66
2023/08/24 05:27:18;;;;;;;7.18;3.67;;;19.90;99.90;;;;;;5016386;28;20030;-65
2023/08/24 05:29:43;;;;;;;7.15;3.80;;;20.00;99.90;;;;;;5016248;28;20033;-65
2023/08/24 05:32:09;;;;;;;6.53;3.90;;;20.10;99.90;;;;;;5016400;28;20021;-65
2023/08/24 05:34:34;;;;;;;11.77;4.35;;;20.10;99.90;;;;;;5017804;28;20026;-65
2023/08/24 05:37:00;;;;;;;8.23;4.03;;;20.10;99.90;;;;;;5020081;28;20028;-65
2023/08/24 05:39:25;;;;;;;7.60;4.20;;;20.00;99.90;;;;;;5019954;28;20025;-65
2023/08/24 05:41:52;;;;;;;10.80;3.95;;;20.00;99.90;;;;;;5019998;28;20040;-65
2023/08/24 05:44:24;;;;;;;9.23;3.63;;;20.10;99.90;;;;;;5019990;28;20025;-65
2023/08/24 05:46:49;;;;;;;8.13;3.70;;;20.10;99.90;;;;;;5019497;28;20037;-65
2023/08/24 05:49:15;;;;;;;6.85;3.60;;;20.10;99.90;;;;;;5019787;28;20040;-65
2023/08/24 05:51:40;;;;;;;4.75;3.88;;;20.00;99.90;;;;;;5019381;28;20030;-65
2023/08/24 05:54:06;;;;;;;9.20;3.78;;;19.90;99.90;;;;;;5020124;28;20101;-65
2023/08/24 05:56:31;;;;;;;8.20;3.58;;;20.00;99.90;;;;;;5019468;28;20022;-65
2023/08/24 05:59:01;;;;;;;7.55;3.97;;;20.00;99.90;;;;;;5019527;28;20026;-65
2023/08/24 06:01:26;;;;;;;6.45;4.60;;;19.80;99.90;;;;;;5019552;28;20026;-65
2023/08/24 06:03:52;;;;;;;12.25;4.18;;;19.80;99.90;;;;;;5019566;28;20037;-65
2023/08/24 06:06:17;;;;;;;11.20;4.47;;;19.80;99.90;;;;;;5019416;28;20032;-65
2023/08/24 06:08:43;;;;;;;7.15;3.83;;;19.80;99.90;;;;;;5019332;28;20045;-65
2023/08/24 06:11:08;;;;;;;6.13;3.50;;;19.90;99.90;;;;;;5019506;28;20022;-65
2023/08/24 06:13:34;;;;;;;4.75;3.65;;;20.00;99.90;;;;;;5019034;28;20024;-65
2023/08/24 06:16:00;;;;;;;8.52;3.80;;;20.10;99.90;;;;;;5019442;28;20088;-65
2023/08/24 06:18:25;;;;;;;12.55;3.88;;;20.20;99.90;;;;;;5019010;28;20026;-65
2023/08/24 06:20:51;;;;;;;6.38;3.75;;;20.40;99.90;;;;;;5019302;28;20030;-65
2023/08/24 06:23:17;;;;;;;6.43;4.05;;;20.40;99.90;;;;;;5019773;28;20045;-65
2023/08/24 06:25:43;;;;;;;10.30;4.40;;;20.30;99.90;;;;;;5018832;28;20041;-65
2023/08/24 06:28:10;;;;;;;9.73;4.43;;;20.10;99.90;;;;;;5018987;28;20029;-65
2023/08/24 06:30:39;;;;;;;9.73;5.32;;;20.00;99.90;;;;;;5018959;28;20017;-65
2023/08/24 06:33:06;;;;;;;12.77;5.63;;;20.10;99.90;;;;;;5019561;28;20029;-65
2023/08/24 06:35:33;;;;;;;6.00;4.40;;;20.00;99.90;;;;;;5018667;28;20065;-65
2023/08/24 06:37:59;;;;;;;8.32;4.85;;;19.90;99.90;;;;;;5018591;28;20026;-65
2023/08/24 06:40:24;;;;;;;8.75;4.78;;;19.80;99.90;;;;;;5018976;28;20029;-65
2023/08/24 06:42:50;;;;;;;7.45;4.97;;;19.90;99.90;;;;;;5019390;28;20076;-65
2023/08/24 06:45:18;;;;;;;8.70;4.22;;;19.80;99.90;;;;;;5018731;28;20034;-65
2023/08/24 06:47:43;;;;;;;7.45;4.90;;;19.80;99.90;;;;;;5018890;28;20072;-65
2023/08/24 06:50:09;;;;;;;11.73;5.00;;;19.70;99.90;;;;;;5018565;28;20034;-65
2023/08/24 06:52:35;;;;;;;11.15;5.57;;;19.60;99.90;;;;;;5018304;28;20089;-65
2023/08/24 06:55:01;;;;;;;12.10;5.25;;;19.50;99.90;;;;;;5018484;28;20056;-65
2023/08/24 06:57:27;;;;;;;10.77;5.50;;;19.30;99.90;;;;;;5019036;28;20049;-65
2023/08/24 06:59:52;;;;;;;6.95;5.35;;;19.20;99.90;;;;;;5018667;28;20061;-65
2023/08/24 07:02:18;;;;;;;6.85;4.68;;;19.10;99.90;;;;;;5018184;28;20026;-65
2023/08/24 07:04:44;;;;;;;8.95;5.70;;;19.20;99.90;;;;;;5019002;28;20032;-65
2023/08/24 07:07:10;;;;;;;13.38;6.43;;;19.20;99.90;;;;;;5018641;28;20033;-65
2023/08/24 07:09:35;;;;;;;10.40;5.90;;;19.40;99.90;;;;;;5017941;28;20026;-65
2023/08/24 07:12:06;;;;;;;11.82;6.90;;;19.50;99.90;;;;;;5018497;28;20028;-65
2023/08/24 07:14:32;;;;;;;14.02;5.68;;;19.50;99.90;;;;;;5018787;28;20021;-65
2023/08/24 07:16:58;;;;;;;6.95;5.63;;;19.60;99.90;;;;;;5018702;28;20026;-65
2023/08/24 07:19:24;;;;;;;12.27;6.28;;;19.60;99.90;;;;;;5018145;28;20030;-65
2023/08/24 07:21:49;;;;;;;8.00;5.80;;;19.60;99.90;;;;;;5018077;28;20032;-65
2023/08/24 07:24:15;;;;;;;9.93;5.50;;;19.80;99.90;;;;;;5017986;28;20028;-65
2023/08/24 07:26:44;;;;;;;10.02;5.93;;;19.80;99.90;;;;;;5017860;28;20026;-65
2023/08/24 07:29:09;;;;;;;13.15;5.72;;;19.90;99.90;;;;;;5017949;28;20029;-65
2023/08/24 07:31:35;;;;;;;7.10;5.30;;;19.80;99.90;;;;;;5017927;28;20033;-65
2023/08/24 07:34:00;;;;;;;7.70;5.70;;;19.80;99.90;;;;;;5018157;28;20033;-64
2023/08/24 07:36:26;;;;;;;7.75;5.38;;;19.80;99.90;;;;;;5017717;28;20025;-64
2023/08/24 07:38:51;;;;;;;6.65;5.28;;;19.80;99.90;;;;;;5018707;28;20026;-65
2023/08/24 07:41:18;;;;;;;12.05;5.88;;;19.90;99.90;;;;;;5018702;28;20033;-69
2023/08/24 07:43:44;;;;;;;7.97;5.40;;;20.00;99.90;;;;;;5019159;28;20036;-69
2023/08/24 07:46:09;;;;;;;9.13;6.55;;;20.10;99.90;;;;;;5017286;28;20038;-69
2023/08/24 07:48:36;;;;;;;6.20;5.30;;;20.10;99.90;;;;;;5017611;28;20030;-69
2023/08/24 07:51:01;;;;;;;7.00;5.70;;;20.30;99.90;;;;;;5018088;28;20080;-69
2023/08/24 07:53:27;;;;;;;11.65;5.95;;;20.40;99.90;;;;;;5017618;28;20026;-69
2023/08/24 07:55:55;;;;;;;7.90;5.20;;;20.50;99.90;;;;;;5018001;28;20030;-69
2023/08/24 07:58:21;;;;;;;9.48;5.50;;;20.50;99.90;;;;;;5017461;28;20040;-69
2023/08/24 08:00:50;;;;;;;5.95;4.88;;;20.60;99.90;;;;;;5017458;28;20034;-69
2023/08/24 08:03:15;;;;;;;7.82;5.50;;;20.70;99.90;;;;;;5017258;28;20048;-69
2023/08/24 08:05:41;;;;;;;11.13;5.55;;;20.80;99.90;;;;;;5017233;28;20025;-69
2023/08/24 08:08:06;;;;;;;10.63;5.60;;;20.80;99.90;;;;;;5018032;28;20034;-69
2023/08/24 08:10:32;;;;;;;7.60;4.80;;;20.80;99.90;;;;;;5017336;28;20052;-69
2023/08/24 08:12:57;;;;;;;9.02;4.90;;;21.00;99.90;;;;;;5017337;28;20022;-69
2023/08/24 08:15:23;;;;;;;11.32;5.30;;;21.00;99.90;;;;;;5016784;28;20073;-68
2023/08/24 08:17:49;;;;;;;8.85;4.93;;;21.10;99.90;;;;;;5016807;28;20022;-68
2023/08/24 08:20:15;;;;;;;10.38;4.47;;;21.20;99.90;;;;;;5017771;28;20026;-68
2023/08/24 08:22:40;;;;;;;12.88;5.47;;;21.40;99.90;;;;;;5017096;28;20026;-68
2023/08/24 08:25:07;;;;;;;10.02;4.90;;;21.30;99.90;;;;;;5017035;28;20022;-68
2023/08/24 08:27:33;;;;;;;12.63;4.07;;;21.40;99.90;;;;;;5016941;28;20026;-68
2023/08/24 08:29:58;;;;;;;7.32;4.10;;;21.50;99.90;;;;;;5017695;28;20026;-68
2023/08/24 08:32:26;;;;;;;6.82;4.30;;;21.70;99.90;;;;;;5017736;28;20022;-68
2023/08/24 08:34:54;;;;;;;6.20;3.90;;;21.90;99.90;;;;;;5017368;28;20025;-69
2023/08/24 08:37:20;;;;;;;7.30;4.32;;;22.00;99.90;;;;;;5017395;28;20117;-69
2023/08/24 08:39:45;;;;;;;8.10;3.47;;;21.90;99.90;;;;;;5017007;28;20058;-68
2023/08/24 08:42:13;;;;;;;8.57;3.80;;;22.10;99.90;;;;;;5017408;28;20033;-68
2023/08/24 08:44:40;;;;;;;8.25;3.70;;;22.30;99.90;;;;;;5016511;28;20022;-68
2023/08/24 08:47:08;;;;;;;7.40;3.80;;;22.40;99.90;;;;;;5040880;22;20041;-67
2023/08/24 08:49:35;;;;;;;9.48;3.60;;;22.70;99.90;;;;;;5032806;28;20033;-67
2023/08/24 08:52:01;;;;;;;3.53;2.83;;;22.80;99.90;;;;;;5016276;28;20029;-67
2023/08/24 08:54:27;;;;;;;5.22;3.42;;;22.90;99.90;;;;;;5016448;28;20028;-67
2023/08/24 08:56:53;;;;;;;8.25;3.67;;;23.00;99.90;;;;;;5016957;28;20018;-67
2023/08/24 08:59:18;;;;;;;9.13;3.15;;;23.20;99.90;;;;;;5016799;28;20022;-67
2023/08/24 09:01:47;;;;;;;7.22;3.67;;;23.30;99.90;;;;;;5017336;28;20081;-67
2023/08/24 09:04:13;;;;;;;4.05;2.75;;;23.40;99.90;;;;;;5017078;28;20080;-67
2023/08/24 09:06:39;;;;;;;5.65;2.90;;;23.50;99.90;;;;;;5017181;28;20022;-67
2023/08/24 09:09:04;;;;;;;6.22;2.97;;;23.60;99.90;;;;;;5019365;28;20026;-67
2023/08/24 09:11:30;;;;;;;5.85;2.80;;;23.70;99.90;;;;;;5021110;28;20036;-68
2023/08/24 09:13:55;;;;;;;6.63;3.00;;;23.70;99.90;;;;;;5021169;28;20058;-68
2023/08/24 09:16:21;;;;;;;4.82;3.20;;;23.80;99.90;;;;;;5020161;28;20026;-68
2023/08/24 09:18:47;;;;;;;4.72;2.60;;;23.90;99.90;;;;;;5020270;28;20214;-68
2023/08/24 09:21:14;;;;;;;6.93;2.80;;;24.10;99.90;;;;;;5020060;28;20026;-68
2023/08/24 09:23:53;;;;;;;5.47;3.08;;;24.20;99.90;;;;;;5020292;28;20030;-68
2023/08/24 09:26:33;;;;;;;4.88;2.70;;;24.30;99.90;;;;;;5019947;28;20079;-69
2023/08/24 09:29:00;;;;;;;5.05;2.70;;;24.60;99.90;;;;;;5019899;28;20029;-68
2023/08/24 09:31:39;;;;;;;8.70;2.70;;;24.80;99.90;;;;;;5020233;28;20096;-69
2023/08/24 09:34:05;;;;;;;5.65;2.65;;;24.80;99.90;;;;;;5020776;28;20037;-69
2023/08/24 09:36:33;;;;;;;10.43;2.70;;;25.00;99.90;;;;;;5020577;28;20049;-69
2023/08/24 09:39:06;;;;;;;3.25;2.58;;;25.10;99.90;;;;;;5020655;28;20052;-68
2023/08/24 09:41:41;;;;;;;5.35;2.47;;;25.20;99.90;;;;;;5020995;28;20057;-68
2023/08/24 09:44:08;;;;;;;5.25;2.45;;;25.20;99.90;;;;;;5019687;28;20036;-69
2023/08/24 09:46:36;;;;;;;3.17;2.17;;;25.30;99.90;;;;;;5020544;28;20116;-69
2023/08/24 09:49:05;;;;;;;3.67;2.03;;;25.50;99.90;;;;;;5019708;28;20029;-69
2023/08/24 09:51:31;;;;;;;3.25;2.13;;;25.80;99.90;;;;;;5019839;28;20026;-69
2023/08/24 09:53:59;;;;;;;3.50;2.25;;;26.00;99.90;;;;;;5019486;28;20022;-69
2023/08/24 09:56:27;;;;;;;7.07;2.05;;;26.00;99.90;;;;;;5019413;28;20033;-68
2023/08/24 09:58:55;;;;;;;7.28;2.05;;;26.00;99.90;;;;;;5019360;28;20029;-68
2023/08/24 10:01:21;;;;;;;4.78;1.70;;;26.20;99.90;;;;;;5019296;28;20113;-68
2023/08/24 10:03:51;;;;;;;4.10;1.98;;;26.30;99.90;;;;;;5019423;28;20037;-68
2023/08/24 10:06:20;;;;;;;3.63;1.80;;;26.50;99.90;;;;;;5019047;28;20037;-69
2023/08/24 10:08:50;;;;;;;4.47;2.17;;;26.80;99.90;;;;;;5019179;28;20030;-68
2023/08/24 10:11:20;;;;;;;7.03;2.25;;;26.80;99.90;;;;;;5019173;28;20026;-69
2023/08/24 10:13:58;;;;;;;9.25;1.67;;;26.90;99.90;;;;;;5020172;28;20098;-68
2023/08/24 10:16:25;;;;;;;5.10;2.03;;;27.00;99.90;;;;;;5019904;28;20092;-69
2023/08/24 10:18:52;;;;;;;2.78;1.90;;;27.00;99.90;;;;;;5019039;28;20029;-69
2023/08/24 10:21:18;;;;;;;2.92;1.75;;;27.20;99.90;;;;;;5018301;28;20084;-68
2023/08/24 10:23:45;;;;;;;3.35;1.67;;;27.20;99.90;;;;;;5019755;28;20100;-68
2023/08/24 10:26:12;;;;;;;4.35;2.15;;;27.20;99.90;;;;;;5019081;28;20057;-68
2023/08/24 10:28:38;;;;;;;8.00;1.80;;;27.30;99.90;;;;;;5018990;28;20029;-68
2023/08/24 10:31:04;;;;;;;4.85;1.77;;;27.40;99.90;;;;;;5018770;28;20022;-69
2023/08/24 10:33:31;;;;;;;1.90;1.70;;;27.60;99.90;;;;;;5018812;28;20029;-69
2023/08/24 10:35:58;;;;;;;3.35;2.17;;;27.60;99.90;;;;;;5019590;28;20022;-68
2023/08/24 10:38:30;;;;;;;3.90;2.40;;;27.80;99.90;;;;;;5018761;28;20058;-68
2023/08/24 10:41:04;;;;;;;2.75;2.00;;;27.80;99.90;;;;;;5019537;28;20049;-68
2023/08/24 10:43:30;;;;;;;4.00;1.63;;;27.70;99.90;;;;;;5018606;28;20057;-68
2023/08/24 10:45:58;;;;;;;3.35;1.80;;;27.70;99.90;;;;;;5018445;28;20038;-68
2023/08/24 10:48:28;;;;;;;3.83;1.73;;;27.90;99.90;;;;;;5018563;28;20029;-69
2023/08/24 10:51:13;;;;;;;4.07;1.95;;;28.00;99.90;;;;;;5018452;28;20018;-69
2023/08/24 10:53:39;;;;;;;5.57;2.20;;;28.00;99.90;;;;;;5018443;28;20069;-69
2023/08/24 10:56:40;;;;;;;4.55;2.20;;;28.00;99.90;;;;;;5018188;28;20053;-68
2023/08/24 10:59:10;;;;;;;;;;;28.00;99.90;;;;;;5019630;28;20049;-69
2023/08/24 11:01:39;;;;;;;3.45;1.80;;;28.10;99.90;;;;;;5019110;28;20003;-69
2023/08/24 11:04:07;;;;;;;2.42;1.92;;;28.20;99.90;;;;;;5019139;28;20049;-69
2023/08/24 11:06:33;;;;;;;4.55;1.88;;;28.10;99.90;;;;;;5018880;28;20026;-68
2023/08/24 11:09:13;;;;;;;4.03;1.90;;;28.20;99.90;;;;;;5018700;28;20076;-68
2023/08/24 11:11:39;;;;;;;4.63;1.92;;;28.20;99.90;;;;;;5018191;28;20029;-68
2023/08/24 11:14:19;;;;;;;3.67;2.10;;;28.00;99.90;;;;;;5018200;28;20026;-68
2023/08/24 11:16:46;;;;;;;3.80;2.20;;;27.80;99.90;;;;;;5018904;28;20022;-68
2023/08/24 11:19:13;;;;;;;5.90;2.55;;;27.70;99.90;;;;;;5019035;28;20111;-68
2023/08/24 11:21:43;;;;;;;2.17;1.98;;;27.70;99.90;;;;;;5019045;28;20026;-69
2023/08/24 11:24:11;;;;;;;5.10;1.98;;;27.80;99.90;;;;;;5017741;28;20056;-68
2023/08/24 11:26:46;;;;;;;3.75;2.10;;;27.80;99.90;;;;;;5018260;28;20045;-68
2023/08/24 11:29:12;;;;;;;5.03;2.03;;;27.90;99.90;;;;;;5017592;28;20022;-68
2023/08/24 11:31:38;;;;;;;3.15;1.98;;;27.80;99.90;;;;;;5016746;28;20036;-69
2023/08/24 11:34:05;;;;;;;6.60;2.20;;;27.70;99.90;;;;;;5017597;28;20089;-68
2023/08/24 11:36:31;;;;;;;3.47;2.33;;;27.60;99.90;;;;;;5017529;28;20041;-68
2023/08/24 11:38:59;;;;;;;3.05;2.10;;;27.50;99.90;;;;;;5018458;28;20022;-68
2023/08/24 11:41:25;;;;;;;4.25;2.33;;;27.60;99.90;;;;;;5017452;28;20029;-68
2023/08/24 11:43:59;;;;;;;5.10;2.00;;;27.50;99.90;;;;;;5018327;28;20022;-68
2023/08/24 11:46:25;;;;;;;5.93;2.38;;;27.40;99.90;;;;;;5018327;28;20132;-68
2023/08/24 11:48:50;;;;;;;5.38;2.25;;;27.50;99.90;;;;;;5017226;28;20117;-68
2023/08/24 11:51:17;;;;;;;5.97;2.20;;;27.50;99.90;;;;;;5018416;28;20042;-68
2023/08/24 11:53:44;;;;;;;4.07;2.60;;;27.60;99.90;;;;;;5018068;28;20050;-69
2023/08/24 11:56:11;;;;;;;3.55;2.30;;;27.80;99.90;;;;;;5017409;28;20030;-69
2023/08/24 11:58:40;;;;;;;3.85;2.00;;;27.80;99.90;;;;;;5017955;28;20025;-69
2023/08/24 12:01:06;;;;;;;5.25;2.28;;;27.70;99.90;;;;;;5017259;28;20026;-68
2023/08/24 12:03:32;;;;;;;4.50;2.50;;;27.70;99.90;;;;;;5017857;28;20029;-69
2023/08/24 12:06:03;;;;;;;3.60;2.08;;;27.70;99.90;;;;;;5017068;28;20032;-68
2023/08/24 12:08:29;;;;;;;;;;;27.80;99.90;;;;;;5017711;28;20057;-68
2023/08/24 12:10:55;;;;;;;2.92;2.10;;;27.80;99.90;;;;;;5018018;28;19905;-68
2023/08/24 12:13:22;;;;;;;4.15;2.20;;;28.00;99.90;;;;;;5016926;28;20049;-69
2023/08/24 12:15:50;;;;;;;3.30;2.60;;;28.00;99.90;;;;;;5016890;28;20018;-69
2023/08/24 12:18:16;;;;;;;4.57;2.35;;;27.90;99.90;;;;;;5017755;28;20024;-68
2023/08/24 12:20:41;;;;;;;2.50;1.98;;;28.00;99.90;;;;;;5017543;28;20126;-68
2023/08/24 12:23:07;;;;;;;2.90;2.08;;;28.00;99.90;;;;;;5016787;28;20018;-68
2023/08/24 12:25:40;;;;;;;3.25;2.10;;;28.00;99.90;;;;;;5016580;28;20090;-68
2023/08/24 12:28:13;;;;;;;3.80;2.67;;;28.30;99.90;;;;;;5016686;28;20022;-68
2023/08/24 12:30:46;;;;;;;3.55;2.30;;;28.30;99.90;;;;;;5017120;28;20028;-69
2023/08/24 12:33:25;;;;;;;3.63;2.05;;;28.60;99.90;;;;;;5016671;28;20028;-68
2023/08/24 12:35:51;;;;;;;3.22;2.28;;;28.80;99.90;;;;;;5016417;28;20022;-68
2023/08/24 12:38:16;;;;;;;5.57;2.30;;;28.80;99.90;;;;;;5016543;28;20052;-68
2023/08/24 12:40:42;;;;;;;5.07;2.28;;;28.60;99.90;;;;;;5016672;28;20022;-68
2023/08/24 12:43:07;;;;;;;3.75;2.33;;;28.50;99.90;;;;;;5016478;28;20018;-68
2023/08/24 12:45:33;;;;;;;3.42;2.33;;;28.60;99.90;;;;;;5016568;28;20030;-68